createdAt,value
2023-01-09T00:00:16.359Z,9.50
2023-01-09T00:02:47.084Z,9.60
2023-01-09T00:05:18.617Z,9.60
2023-01-09T00:07:48.554Z,9.50
2023-01-09T00:10:18.142Z,9.60
2023-01-09T00:12:47.569Z,9.50
2023-01-09T00:15:17.454Z,9.50
2023-01-09T00:17:48.317Z,9.50
2023-01-09T00:20:18.130Z,9.50
2023-01-09T00:22:47.619Z,9.40
2023-01-09T00:25:17.220Z,9.40
2023-01-09T00:27:47.039Z,9.40
2023-01-09T00:30:16.611Z,9.60
2023-01-09T00:32:46.869Z,9.60
2023-01-09T00:35:19.197Z,9.50
2023-01-09T00:37:48.938Z,9.50
2023-01-09T00:40:19.705Z,9.60
2023-01-09T00:42:52.697Z,9.50
2023-01-09T00:45:26.883Z,9.50
2023-01-09T00:47:59.085Z,9.40
2023-01-09T00:50:32.117Z,9.40
2023-01-09T00:53:04.723Z,9.40
2023-01-09T00:55:36.391Z,9.40
2023-01-09T00:58:06.570Z,9.40
2023-01-09T01:00:36.134Z,9.50
2023-01-09T01:03:05.648Z,9.40
2023-01-09T01:05:54.040Z,9.40
2023-01-09T01:08:23.464Z,9.50
2023-01-09T01:10:53.357Z,9.40
2023-01-09T01:13:22.793Z,9.50
2023-01-09T01:15:52.267Z,9.50
2023-01-09T01:18:21.992Z,9.40
2023-01-09T01:20:51.394Z,9.50
2023-01-09T01:23:20.815Z,9.50
2023-01-09T01:25:50.658Z,9.40
2023-01-09T01:28:20.068Z,9.50
2023-01-09T01:30:49.566Z,9.50
2023-01-09T01:33:19.101Z,9.50
2023-01-09T01:35:49.880Z,9.50
2023-01-09T01:38:19.319Z,9.40
2023-01-09T01:40:51.921Z,9.40
2023-01-09T01:43:20.652Z,9.40
2023-01-09T01:45:50.024Z,9.40
2023-01-09T01:48:25.657Z,9.40
2023-01-09T01:50:58.226Z,9.40
2023-01-09T01:53:33.796Z,9.40
2023-01-09T01:56:22.702Z,9.40
2023-01-09T01:59:01.065Z,9.40
2023-01-09T02:01:33.036Z,9.40
2023-01-09T02:04:03.859Z,9.30
2023-01-09T02:06:36.229Z,9.30
2023-01-09T02:09:07.590Z,9.30
2023-01-09T02:11:37.113Z,9.40
2023-01-09T02:14:06.643Z,9.30
2023-01-09T02:17:00.257Z,9.30
2023-01-09T02:19:50.412Z,9.30
2023-01-09T02:22:45.747Z,9.30
2023-01-09T02:25:30.376Z,9.20
2023-01-09T02:28:12.286Z,9.20
2023-01-09T02:30:53.949Z,9.20
2023-01-09T02:33:29.599Z,9.20
2023-01-09T02:36:17.178Z,9.20
2023-01-09T02:38:55.397Z,9.30
2023-01-09T02:41:37.391Z,9.30
2023-01-09T02:44:28.437Z,9.30
2023-01-09T02:47:06.996Z,9.20
2023-01-09T02:49:39.582Z,9.20
2023-01-09T02:52:17.966Z,9.20
2023-01-09T02:54:59.688Z,9.20
2023-01-09T02:58:05.268Z,9.20
2023-01-09T03:00:57.991Z,9.20
2023-01-09T03:03:42.124Z,9.20
2023-01-09T03:06:23.528Z,9.10
2023-01-09T03:08:58.762Z,9.10
2023-01-09T03:11:31.743Z,9.00
2023-01-09T03:14:04.236Z,9.10
2023-01-09T03:16:37.229Z,9.10
2023-01-09T03:19:09.797Z,9.10
2023-01-09T03:21:40.936Z,9.10
2023-01-09T03:25:41.947Z,9.10
2023-01-09T03:28:26.631Z,9.10
2023-01-09T03:30:56.514Z,9.10
2023-01-09T03:33:26.367Z,9.10
2023-01-09T03:35:55.787Z,9.10
2023-01-09T03:38:25.285Z,9.00
2023-01-09T03:40:55.505Z,9.00
2023-01-09T03:43:24.924Z,9.00
2023-01-09T03:45:54.527Z,9.00
2023-01-09T03:48:24.403Z,9.00
2023-01-09T03:50:55.153Z,9.00
2023-01-09T03:53:27.496Z,9.00
2023-01-09T03:55:59.481Z,8.90
2023-01-09T03:58:29.091Z,8.90
2023-01-09T04:01:04.289Z,8.90
2023-01-09T04:03:34.116Z,8.90
2023-01-09T04:06:03.514Z,8.80
2023-01-09T04:08:32.935Z,8.80
2023-01-09T04:11:02.383Z,8.80
2023-01-09T04:13:31.820Z,8.70
2023-01-09T04:16:01.303Z,8.70
2023-01-09T04:18:31.381Z,8.80
2023-01-09T04:21:00.800Z,8.80
2023-01-09T04:23:30.229Z,8.80
2023-01-09T04:25:59.708Z,8.70
2023-01-09T04:28:29.174Z,8.70
2023-01-09T04:30:58.607Z,8.80
2023-01-09T04:33:28.409Z,8.70
2023-01-09T04:35:57.901Z,8.80
2023-01-09T04:38:27.693Z,8.80
2023-01-09T04:40:57.135Z,8.80
2023-01-09T04:43:27.186Z,8.70
2023-01-09T04:45:56.700Z,8.60
2023-01-09T04:48:26.667Z,8.60
2023-01-09T04:50:56.085Z,8.50
2023-01-09T04:53:25.515Z,8.60
2023-01-09T04:55:54.966Z,8.50
2023-01-09T04:58:24.395Z,8.50
2023-01-09T05:00:53.894Z,8.50
2023-01-09T05:03:23.371Z,8.40
2023-01-09T05:05:53.384Z,8.50
2023-01-09T05:08:22.808Z,8.50
2023-01-09T05:10:52.616Z,8.40
2023-01-09T05:13:22.120Z,8.30
2023-01-09T05:15:51.540Z,8.30
2023-01-09T05:18:21.059Z,8.10
2023-01-09T05:20:50.515Z,8.00
2023-01-09T05:23:19.938Z,7.90
2023-01-09T05:25:49.417Z,7.90
2023-01-09T05:28:18.908Z,7.80
2023-01-09T05:30:49.179Z,7.80
2023-01-09T05:33:18.780Z,7.80
2023-01-09T05:35:48.212Z,7.80
2023-01-09T05:38:18.435Z,7.80
2023-01-09T05:40:48.044Z,7.80
2023-01-09T05:43:17.524Z,7.80
2023-01-09T05:45:47.027Z,7.90
2023-01-09T05:48:16.457Z,8.00
2023-01-09T05:50:45.906Z,8.00
2023-01-09T05:53:15.845Z,8.00
2023-01-09T05:55:46.400Z,8.10
2023-01-09T05:58:16.282Z,8.00
2023-01-09T06:00:45.836Z,8.00
2023-01-09T06:03:15.343Z,8.00
2023-01-09T06:05:44.857Z,8.10
2023-01-09T06:08:14.266Z,8.10
2023-01-09T06:10:43.921Z,8.10
2023-01-09T06:13:12.757Z,8.10
2023-01-09T06:15:41.613Z,8.00
2023-01-09T06:18:10.388Z,8.10
2023-01-09T06:20:39.485Z,8.00
2023-01-09T06:23:08.066Z,8.00
2023-01-09T06:25:36.638Z,8.00
2023-01-09T06:28:05.518Z,8.00
2023-01-09T06:30:34.152Z,8.10
2023-01-09T06:33:03.840Z,8.00
2023-01-09T06:35:32.619Z,8.00
2023-01-09T06:38:03.237Z,8.10
2023-01-09T06:40:31.931Z,8.10
2023-01-09T06:43:00.498Z,8.10
2023-01-09T06:45:29.831Z,8.00
2023-01-09T06:47:59.349Z,8.10
2023-01-09T06:50:28.842Z,8.10
2023-01-09T06:52:58.249Z,8.10
2023-01-09T06:55:27.754Z,8.10
2023-01-09T06:57:57.266Z,8.10
2023-01-09T07:00:27.614Z,8.20
2023-01-09T07:02:57.269Z,8.20
2023-01-09T07:05:26.796Z,8.20
2023-01-09T07:07:57.590Z,8.10
2023-01-09T07:10:27.153Z,8.10
2023-01-09T07:12:56.589Z,8.10
2023-01-09T07:15:26.244Z,8.10
2023-01-09T07:17:55.756Z,8.10
2023-01-09T07:20:25.247Z,8.10
2023-01-09T07:22:55.350Z,8.10
2023-01-09T07:25:24.968Z,8.10
2023-01-09T07:27:54.389Z,8.10
2023-01-09T07:30:24.034Z,8.10
2023-01-09T07:32:54.460Z,8.10
2023-01-09T07:35:24.170Z,8.00
2023-01-09T07:37:53.793Z,8.10
2023-01-09T07:40:24.709Z,8.10
2023-01-09T07:42:54.806Z,8.20
2023-01-09T07:45:26.047Z,8.10
2023-01-09T07:47:55.467Z,8.10
2023-01-09T07:50:24.891Z,8.10
2023-01-09T07:52:54.782Z,8.00
2023-01-09T07:55:24.207Z,8.00
2023-01-09T07:57:55.586Z,8.00
2023-01-09T08:00:25.152Z,7.90
2023-01-09T08:02:54.895Z,8.00
2023-01-09T08:05:24.701Z,8.00
2023-01-09T08:07:54.209Z,8.00
2023-01-09T08:10:23.713Z,8.10
2023-01-09T08:12:53.206Z,8.10
2023-01-09T08:15:22.634Z,8.10
2023-01-09T08:17:52.058Z,8.10
2023-01-09T08:20:22.161Z,8.10
2023-01-09T08:22:53.307Z,8.10
2023-01-09T08:25:22.772Z,8.10
2023-01-09T08:27:53.364Z,8.20
2023-01-09T08:30:24.127Z,8.20
2023-01-09T08:32:55.604Z,8.20
2023-01-09T08:35:25.609Z,8.20
2023-01-09T08:37:55.858Z,8.20
2023-01-09T08:40:25.433Z,8.30
2023-01-09T08:43:12.845Z,8.30
2023-01-09T08:46:00.148Z,8.30
2023-01-09T08:48:29.987Z,8.30
2023-01-09T08:50:59.571Z,8.70
2023-01-09T08:53:29.806Z,8.80
2023-01-09T08:55:59.364Z,9.40
2023-01-09T08:58:30.252Z,9.80
2023-01-09T09:01:00.684Z,10.00
2023-01-09T09:03:30.091Z,9.90
2023-01-09T09:05:59.533Z,10.00
2023-01-09T09:08:29.070Z,9.70
2023-01-09T09:11:00.132Z,9.70
2023-01-09T09:13:29.645Z,9.30
2023-01-09T09:15:59.211Z,9.10
2023-01-09T09:18:28.908Z,9.00
2023-01-09T09:20:58.621Z,8.90
2023-01-09T09:23:28.031Z,8.80
2023-01-09T09:25:57.516Z,8.70
2023-01-09T09:28:26.996Z,8.70
2023-01-09T09:30:56.432Z,8.50
2023-01-09T09:33:26.515Z,8.50
2023-01-09T09:35:57.009Z,8.50
2023-01-09T09:38:26.433Z,8.40
2023-01-09T09:41:07.770Z,8.70
2023-01-09T09:44:03.842Z,8.70
2023-01-09T09:46:46.739Z,8.80
2023-01-09T09:49:17.832Z,8.80
2023-01-09T09:51:50.599Z,8.70
2023-01-09T09:54:20.942Z,8.70
2023-01-09T09:56:53.392Z,8.80
2023-01-09T09:59:27.017Z,8.70
2023-01-09T10:02:02.681Z,8.60
2023-01-09T10:04:35.094Z,8.70
2023-01-09T10:07:09.774Z,8.60
2023-01-09T10:09:51.011Z,8.70
2023-01-09T10:12:31.970Z,8.70
2023-01-09T10:15:19.452Z,8.70
2023-01-09T10:18:07.571Z,8.60
2023-01-09T10:20:57.874Z,8.50
2023-01-09T10:23:42.166Z,8.50
2023-01-09T10:26:40.552Z,8.60
2023-01-09T10:29:31.446Z,8.60
2023-01-09T10:32:31.769Z,8.70
2023-01-09T10:35:13.573Z,8.60
2023-01-09T10:37:44.086Z,8.60
2023-01-09T10:40:22.714Z,8.50
2023-01-09T10:43:10.212Z,8.60
2023-01-09T10:45:47.401Z,8.60
2023-01-09T10:48:28.990Z,8.80
2023-01-09T10:51:00.451Z,8.90
2023-01-09T10:53:41.577Z,8.90
2023-01-09T10:56:20.375Z,8.80
2023-01-09T10:58:51.763Z,8.80
2023-01-09T11:01:27.146Z,8.90
2023-01-09T11:03:58.414Z,8.80
2023-01-09T11:06:31.448Z,8.80
2023-01-09T11:09:03.024Z,8.90
2023-01-09T11:11:38.662Z,8.80
2023-01-09T11:14:18.254Z,8.70
2023-01-09T11:16:57.120Z,8.80
2023-01-09T11:19:27.809Z,8.90
2023-01-09T11:22:18.899Z,9.30
2023-01-09T11:24:51.386Z,9.20
2023-01-09T11:27:24.244Z,9.30
2023-01-09T11:30:08.909Z,9.40
2023-01-09T11:32:38.798Z,9.40
2023-01-09T11:35:19.810Z,9.40
2023-01-09T11:38:10.557Z,9.30
2023-01-09T11:40:49.594Z,9.10
2023-01-09T11:43:22.511Z,9.30
2023-01-09T11:46:01.509Z,9.10
2023-01-09T11:48:43.819Z,8.90
2023-01-09T11:51:22.329Z,8.70
2023-01-09T11:53:55.018Z,8.60
2023-01-09T11:56:24.983Z,8.50
2023-01-09T11:58:54.849Z,8.50
2023-01-09T12:01:51.947Z,8.40
2023-01-09T12:04:40.983Z,8.40
2023-01-09T12:07:25.310Z,8.10
2023-01-09T12:10:03.799Z,7.70
2023-01-09T12:13:09.992Z,7.50
2023-01-09T12:15:48.644Z,7.50
2023-01-09T12:18:36.065Z,7.40
2023-01-09T12:21:31.305Z,7.30
2023-01-09T12:24:22.169Z,7.30
2023-01-09T12:27:17.113Z,7.30
2023-01-09T12:30:00.789Z,7.20
2023-01-09T12:32:35.930Z,7.40
2023-01-09T12:35:20.526Z,7.50
2023-01-09T12:37:58.624Z,7.60
2023-01-09T12:40:32.197Z,7.70
2023-01-09T12:43:24.152Z,7.80
2023-01-09T12:45:56.916Z,7.80
2023-01-09T12:48:37.028Z,7.90
2023-01-09T12:51:15.339Z,8.00
2023-01-09T12:53:47.934Z,8.10
2023-01-09T12:56:23.350Z,8.30
2023-01-09T12:58:55.848Z,8.50
2023-01-09T13:01:33.586Z,8.70
2023-01-09T13:04:15.261Z,8.70
2023-01-09T13:06:48.727Z,8.70
2023-01-09T13:09:24.696Z,8.70
2023-01-09T13:12:20.429Z,8.70
2023-01-09T13:15:08.134Z,8.80
2023-01-09T13:17:43.860Z,8.90
2023-01-09T13:20:22.599Z,8.80
2023-01-09T13:22:53.554Z,8.90
2023-01-09T13:25:37.844Z,9.10
2023-01-09T13:28:16.468Z,9.20
2023-01-09T13:31:07.091Z,9.30
2023-01-09T13:33:41.128Z,9.30
2023-01-09T13:36:13.781Z,9.50
2023-01-09T13:38:45.175Z,9.70
2023-01-09T13:41:35.834Z,9.80
2023-01-09T13:44:21.197Z,9.80
2023-01-09T13:46:56.868Z,9.90
2023-01-09T13:49:35.171Z,9.90
2023-01-09T13:52:26.442Z,9.70
2023-01-09T13:54:58.266Z,9.80
2023-01-09T13:57:31.654Z,9.80
2023-01-09T14:00:08.214Z,9.70
2023-01-09T14:02:44.457Z,9.60
2023-01-09T14:05:14.777Z,9.60
2023-01-09T14:07:49.327Z,9.60
2023-01-09T14:10:28.727Z,9.60
2023-01-09T14:12:58.541Z,9.60
2023-01-09T14:15:31.712Z,9.50
2023-01-09T14:18:02.592Z,9.50
2023-01-09T14:20:35.604Z,9.40
2023-01-09T14:23:28.251Z,9.40
2023-01-09T14:25:36.765Z,9.40
2023-01-09T14:28:09.200Z,9.50
2023-01-09T14:30:39.444Z,9.50
2023-01-09T14:33:28.276Z,9.40
2023-01-09T14:36:01.326Z,9.40
2023-01-09T14:38:31.984Z,9.40
2023-01-09T14:41:02.138Z,9.40
2023-01-09T14:43:49.408Z,9.40
2023-01-09T14:46:19.631Z,9.40
2023-01-09T14:48:58.958Z,9.40
2023-01-09T14:51:28.916Z,9.40
2023-01-09T14:53:58.055Z,9.40
2023-01-09T14:56:29.453Z,9.40
2023-01-09T14:59:15.045Z,9.40
2023-01-09T15:01:45.652Z,9.40
2023-01-09T15:04:15.850Z,9.60
2023-01-09T15:06:45.645Z,9.70
2023-01-09T15:09:15.715Z,9.60
2023-01-09T15:11:44.447Z,9.70
2023-01-09T15:14:14.872Z,9.70
2023-01-09T15:16:45.701Z,9.70
2023-01-09T15:19:15.246Z,9.80
2023-01-09T15:21:45.333Z,9.80
2023-01-09T15:24:25.628Z,9.80
2023-01-09T15:26:55.646Z,9.80
2023-01-09T15:29:25.413Z,9.80
2023-01-09T15:31:55.332Z,9.70
2023-01-09T15:34:25.552Z,9.60
2023-01-09T15:36:54.571Z,9.60
2023-01-09T15:39:24.661Z,9.60
2023-01-09T15:42:12.036Z,9.50
2023-01-09T15:44:42.524Z,9.50
2023-01-09T15:47:15.872Z,9.40
2023-01-09T15:49:45.109Z,9.40
2023-01-09T15:52:15.298Z,9.40
2023-01-09T15:54:47.231Z,9.40
2023-01-09T15:57:23.498Z,9.30
2023-01-09T15:59:53.413Z,9.20
2023-01-09T16:02:40.629Z,9.10
2023-01-09T16:05:10.935Z,9.10
2023-01-09T16:07:41.250Z,9.10
2023-01-09T16:10:12.136Z,9.00
2023-01-09T16:12:41.223Z,9.00
2023-01-09T16:15:11.332Z,9.00
2023-01-09T16:17:44.791Z,9.00
2023-01-09T16:20:14.320Z,9.00
2023-01-09T16:22:53.419Z,9.00
2023-01-09T16:25:23.566Z,8.90
2023-01-09T16:28:10.169Z,8.90
2023-01-09T16:30:39.594Z,8.90
2023-01-09T16:33:09.895Z,8.80
2023-01-09T16:35:38.932Z,8.80
2023-01-09T16:38:09.329Z,8.70
2023-01-09T16:40:38.541Z,8.70
2023-01-09T16:43:10.204Z,8.60
2023-01-09T16:45:40.966Z,8.60
2023-01-09T16:48:14.225Z,8.50
2023-01-09T16:50:44.295Z,8.40
2023-01-09T16:53:17.090Z,8.40
2023-01-09T16:55:47.436Z,8.40
2023-01-09T16:58:18.595Z,8.40
2023-01-09T17:00:48.247Z,8.30
2023-01-09T17:03:17.891Z,8.30
2023-01-09T17:05:48.006Z,8.40
2023-01-09T17:08:23.896Z,8.40
2023-01-09T17:10:53.524Z,8.40
2023-01-09T17:13:22.111Z,8.30
2023-01-09T17:15:51.404Z,8.30
2023-01-09T17:18:22.089Z,8.30
2023-01-09T17:20:52.188Z,8.30
2023-01-09T17:23:22.502Z,8.20
2023-01-09T17:26:10.101Z,8.20
2023-01-09T17:28:40.260Z,8.20
2023-01-09T17:31:10.358Z,8.10
2023-01-09T17:33:40.114Z,8.10
2023-01-09T17:36:10.208Z,8.00
2023-01-09T17:38:38.781Z,8.00
2023-01-09T17:41:09.754Z,8.00
2023-01-09T17:43:38.308Z,8.00
2023-01-09T17:46:08.688Z,8.00
2023-01-09T17:48:38.853Z,8.00
2023-01-09T17:51:07.554Z,8.00
2023-01-09T17:53:36.168Z,8.00
2023-01-09T17:56:05.112Z,8.00
2023-01-09T17:58:33.699Z,8.00
2023-01-09T18:01:02.424Z,8.10
2023-01-09T18:03:32.708Z,8.10
2023-01-09T18:06:01.364Z,8.10
2023-01-09T18:08:29.964Z,8.10
2023-01-09T18:11:00.271Z,8.20
2023-01-09T18:13:28.839Z,8.20
2023-01-09T18:15:57.670Z,8.20
2023-01-09T18:18:27.026Z,8.20
2023-01-09T18:20:57.227Z,8.20
2023-01-09T18:23:26.825Z,8.20
2023-01-09T18:25:55.413Z,8.30
2023-01-09T18:28:24.041Z,8.30
2023-01-09T18:30:54.117Z,8.30
2023-01-09T18:33:25.397Z,8.30
2023-01-09T18:35:54.339Z,8.30
2023-01-09T18:38:25.695Z,8.20
2023-01-09T18:40:56.519Z,8.20
2023-01-09T18:43:25.087Z,8.20
2023-01-09T18:45:53.787Z,8.20
2023-01-09T18:48:23.778Z,8.20
2023-01-09T18:50:52.374Z,8.20
2023-01-09T18:53:21.727Z,8.20
2023-01-09T18:55:51.944Z,8.20
2023-01-09T18:58:21.353Z,8.30
2023-01-09T19:00:52.233Z,8.30
2023-01-09T19:03:21.950Z,8.30
2023-01-09T19:05:51.553Z,8.30
2023-01-09T19:08:21.638Z,8.20
2023-01-09T19:10:54.864Z,8.20
2023-01-09T19:13:24.916Z,8.30
2023-01-09T19:15:59.162Z,8.20
2023-01-09T19:18:31.147Z,8.20
2023-01-09T19:21:00.647Z,8.20
2023-01-09T19:23:31.014Z,8.20
2023-01-09T19:26:03.512Z,8.30
2023-01-09T19:28:33.004Z,8.20
2023-01-09T19:31:03.770Z,8.20
2023-01-09T19:33:33.263Z,8.20
2023-01-09T19:36:02.695Z,8.20
2023-01-09T19:38:32.504Z,8.20
2023-01-09T19:41:12.659Z,8.20
2023-01-09T19:43:45.280Z,8.20
2023-01-09T19:46:20.721Z,8.20
2023-01-09T19:48:51.897Z,8.20
2023-01-09T19:51:23.131Z,8.20
2023-01-09T19:53:55.673Z,8.20
2023-01-09T19:56:28.589Z,8.20
2023-01-09T19:59:02.686Z,8.20
2023-01-09T20:01:35.087Z,8.10
2023-01-09T20:04:09.081Z,8.20
2023-01-09T20:06:44.164Z,8.10
2023-01-09T20:09:16.068Z,8.10
2023-01-09T20:11:45.977Z,8.10
2023-01-09T20:14:17.506Z,8.00
2023-01-09T20:16:48.871Z,8.10
2023-01-09T20:19:18.720Z,8.00
2023-01-09T20:21:49.442Z,8.10
2023-01-09T20:24:20.671Z,8.10
2023-01-09T20:26:51.262Z,8.10
2023-01-09T20:29:21.115Z,8.00
2023-01-09T20:31:50.744Z,8.00
2023-01-09T20:34:20.234Z,8.10
2023-01-09T20:36:49.867Z,8.00
2023-01-09T20:39:19.351Z,8.00
2023-01-09T20:41:48.849Z,8.00
2023-01-09T20:44:18.326Z,7.90
2023-01-09T20:46:48.462Z,7.90
2023-01-09T20:49:19.194Z,8.00
2023-01-09T20:51:52.134Z,7.90
2023-01-09T20:54:22.898Z,7.90
2023-01-09T20:56:52.390Z,7.90
2023-01-09T20:59:22.589Z,7.80
2023-01-09T21:01:52.397Z,7.80
2023-01-09T21:04:21.871Z,7.80
2023-01-09T21:06:51.870Z,7.80
2023-01-09T21:09:21.508Z,7.80
2023-01-09T21:11:51.492Z,7.80
2023-01-09T21:14:20.998Z,7.90
2023-01-09T21:16:54.921Z,7.90
2023-01-09T21:19:22.473Z,7.90
2023-01-09T21:21:53.417Z,7.90
2023-01-09T21:24:23.549Z,7.90
2023-01-09T21:26:52.978Z,7.90
2023-01-09T21:29:22.490Z,8.00
2023-01-09T21:31:52.493Z,8.00
2023-01-09T21:34:21.977Z,8.00
2023-01-09T21:36:52.173Z,8.00
2023-01-09T21:39:22.247Z,8.00
2023-01-09T21:42:09.953Z,8.00
2023-01-09T21:44:57.435Z,8.00
2023-01-09T21:47:27.017Z,8.00
2023-01-09T21:49:56.456Z,8.00
2023-01-09T21:52:25.889Z,8.00
2023-01-09T21:54:56.292Z,8.00
2023-01-09T21:57:25.722Z,8.00
2023-01-09T21:59:55.222Z,8.00
2023-01-09T22:02:24.761Z,8.00
2023-01-09T22:04:55.904Z,8.00
2023-01-09T22:07:25.652Z,8.00
2023-01-09T22:09:55.089Z,8.00
2023-01-09T22:12:24.532Z,8.00
2023-01-09T22:14:54.426Z,7.90
2023-01-09T22:17:23.844Z,7.90
2023-01-09T22:19:53.271Z,8.00
2023-01-09T22:22:22.757Z,7.90
2023-01-09T22:24:53.359Z,8.00
2023-01-09T22:27:23.967Z,7.90
2023-01-09T22:29:53.383Z,7.90
2023-01-09T22:32:22.891Z,7.90
2023-01-09T22:34:52.328Z,7.90
2023-01-09T22:37:23.316Z,8.00
2023-01-09T22:39:52.762Z,8.00
2023-01-09T22:42:22.263Z,8.00
2023-01-09T22:44:51.689Z,8.00
2023-01-09T22:47:21.122Z,8.10
2023-01-09T22:49:53.358Z,8.10
2023-01-09T22:52:22.448Z,8.10
2023-01-09T22:54:51.904Z,8.00
2023-01-09T22:57:21.509Z,8.10
2023-01-09T22:59:52.679Z,8.00
2023-01-09T23:02:22.236Z,8.00
2023-01-09T23:04:53.645Z,8.00
2023-01-09T23:07:23.085Z,8.00
2023-01-09T23:09:53.578Z,8.00
2023-01-09T23:12:24.161Z,7.90
2023-01-09T23:14:54.014Z,7.90
2023-01-09T23:17:23.531Z,7.90
2023-01-09T23:19:52.942Z,7.90
2023-01-09T23:22:23.357Z,7.90
2023-01-09T23:24:52.995Z,7.90
2023-01-09T23:27:22.426Z,7.90
2023-01-09T23:29:52.176Z,7.90
2023-01-09T23:32:21.607Z,7.90
2023-01-09T23:34:51.101Z,7.90
2023-01-09T23:37:20.892Z,7.90
2023-01-09T23:39:50.312Z,8.00
2023-01-09T23:42:37.840Z,7.90
2023-01-09T23:45:07.811Z,7.90
2023-01-09T23:47:37.345Z,7.90
2023-01-09T23:50:08.641Z,7.90
2023-01-09T23:52:38.284Z,7.90
2023-01-09T23:55:10.034Z,7.90
2023-01-09T23:57:39.468Z,7.80
